India Meteorological Department
Airport METARs
Date : 24-01-2020
Sl. # Airport METAR
1 Agartala VEAT 241400Z 06002KT 3000 BR FEW020 SCT100 17/15 Q1016 NOSIG=
2 Ahmedabad VAAH 241500Z 00000KT 4000 FU NSC 20/10 Q1016 NOSIG=
3 Allahabad VEAB 241500Z VRB01KT 5000 BR SCT250 12/09 Q1018 NOSIG=
4 Amritsar VIAR 241500Z 00000KT 4000 BR FEW100 11/08 Q1016 NOSIG=
5 Aurangabad VAAU 241500Z VRB02KT 4000 HZ SCT020 24/17 Q1017 NOSIG=
6 Bangalore VOBL 241500Z 12005KT 6000 NSC 22/07 Q1018 NOSIG=
7 Baroda VABO 241500Z 05005KT 6000 NSC 24/12 Q1015 NOSIG=
8 Bhaunagar VABV 241500Z 01003KT 3000 HZ NSC 22/17 Q1015=
9 Bhopal VABP 241500Z 32004KT 6000 NSC 15/10 Q1018 NOSIG=
10 Bhubaneswar VEBS 241500Z 09002KT 1600 BR NSC 22/17 Q1015 NOSIG=
11 Chennai VOMM 241500Z 03004KT 6000 FEW020 25/19 Q1015 NOSIG=
12 Coimbatore VOCB 241500Z 08005KT 6000 NSC 27/13 Q1015 NOSIG=
13 Colombo VCBI 241510Z 05009KT CAVOK 28/22 Q1011 NOSIG=
14 Delhi VIDP 241500Z 29004KT 3000 HZ NSC 14/05 Q1016 NOSIG =
15 Dehradun VIDN 241400Z 27003KT 3000 BR FEW030 13/10 Q1015=
16 Gauhati VEGT 241500Z 00000KT 1800 BR FEW018 SCT100 14/12 Q1018 NOSIG=
17 Gaya VEGY 241500Z 00000KT 3000 HZ SCT100 12/08 Q1017 =
18 Goa VOGO 241500Z 01007KT 6000 NSC 27/23 Q1012 NOSIG=
19 Hyderabad VOHS 241500Z 10004KT 6000 NSC 23/16 Q1018 NOSIG=
20 Indore VAID 241500Z 00000KT 4000 BR NSC 18/14 Q1018 NOSIG=
21 Jabalpur VAJB 241500Z 10003KT 5000 HZ NSC 15/07 Q1018=
22 Jaipur VIJP 241500Z VRB02KT 2500 HZ NSC 17/01 Q1017 NOSIG=
23 Kochi VOCI 241500Z 10002KT 4000 HZ NSC 29/22 Q1011 NOSIG=
24 Kolkata VECC 241500Z 02004KT 3500 HZ NSC 16/09 Q1016 NOSIG=
25 Kozhikode VOCL 241500Z 33002KT 5000 HZ FEW015 28/21 Q1011 NOSIG=
26 Lucknow VILK 241500Z 00000KT 3000 HZ NSC 13/10 Q1017 NOSIG=
27 Madurai VOMD 241500Z 09004KT 6000 FEW018 28/20 Q1014 NOSIG=
28 Mumbai VABB 241500Z 36005KT 3500 FU NSC 29/17 Q1013 NOSIG=
29 Nagpur VANP 241500Z 00000KT 3000 HZ NSC 21/13 Q1017 NOSIG=
30 Patna VEPT 241500Z 00000KT 3000 BR NSC 13/12 Q1017 NOSIG=
31 Pathankot VIPK 241500Z 00000KT 4000 BR SCT200 11/09 Q1017 NOSIG=
32 Raipur VERP 241500Z 29003KT 4000 HZ NSC 22/09 Q1017 NOSIG=
33 Surat VASU 241500Z 05006KT 5000 HZ NSC 23/15 Q1015 NOSIG=
34 Ranchi VERC 241500Z 00000KT 3000 HZ NSC 14/05 Q1018 NOSIG=
35 Trichy VOTR 241500Z 09006KT 6000 FEW018 26/21 Q1014 NOSIG=
36 Trivandrum VOTV 241500Z 03004KT 4000 HZ FEW015 29/25 Q1011 NOSIG=
37 Udaipur VAUD 241400Z 00000KT 3000 HZ FEW100 17/11 Q1017 NOSIG =
38 Varanasi VEBN 241500Z 27005KT 3500 HZ NSC 15/08 Q1016 NOSIG=
39 Vizag VOVZ 241500Z VRB02KT 2500 BR NSC 23/21 Q1015 NOSIG=
40 Male VRMM 241500Z 07012KT 9000 FEW018TCU BKN130 28/25 Q1011 TEMPO 6000 -TSRA=
41 Gan VRMG 241500Z 17004KT 9000 TS SCT016 FEW017CB BKN110 26/25 Q1011 RETS CB N,NNE,NW TEMPO 3000 TSRA=
42 Kathmandu VNKT 241520Z VRB02KT 6000 FEW015 08/06 Q1019 NOSIG=
43 Dhaka VGHS 241500Z 35006KT 3500 HZ NSC 18/09 Q1017 NOSIG=
44 Colombo VCBI 241510Z 05009KT CAVOK 28/22 Q1011 NOSIG=
45 Karachi OPKC 241500Z 00000KT 7000 NSC 20/03 Q1018 NOSIG=
46 Lahore OPLA 241455Z 00000KT 6000 NSC 14/01 Q1016 NOSIG RMK QFE990 RMK A30.01=
47 Leh VILH 241500Z 29008KT 6000 FEW060 BKN150 -6/-2 Q1026 NOSIG=
48 Sri Nagar VISR 241500Z 23003KT 6000 FEW025 BKN090 01/-3 Q1023 NOSIG=
49 Jammu VIJU 241500Z VRB01KT 6000 SCT090 BKN200 13/08 Q1015 NOSIG=
50 Jodhpur VIJO 241500Z VRB02KT 6000 SCT250 14/02 Q1018 NOSIG=
51 Jaisalmer VIJR 241500Z VRB02KT 6000 FEW100 SCT250 17/01 Q1017 NOSIG=
52 Bhuj-Rudra VABJ 241500Z VRB01KT 6000 SKC 16/05 Q1018 NOSIG=
53 Gorakhpur VEGK 241500Z VRB02KT 1500 BR FEW250 09/09 Q1018 NOSIG=
54 Agra VIAG 241500Z VRB01KT 6000 SCT250 10/09 Q1017 NOSIG=
55 Bagdogra VEBD 241500Z VRB01KT 2000 BR FEW250 10/08 Q1018 BECMG 1500=
56 Gwalior VIGR 241500Z VRB01KT 5000 BR FEW250 12/09 Q1018 NOSIG=
57 Pune VAPO 241500Z VRB01KT 6000 SKC 23/11 Q1018 NOSIG=
58 Chandigarh VICG 241500Z 32006KT 5000 BR FEW250 12/12 Q1016 NOSIG=
59 Jamnagar VAJM 241500Z 05003KT 6000 SKC 21/10 Q1016 NOSIG=

 

--- End of List ---